Terminal Aerodrome Forecast
Issued by NWS

Home | Current Version | Previous Version | Graphics & Text | Print | Product List | Glossary On
Versions: 1 2 3 4 5 6 7 8 9 10 11 12 13 14 15 16 17 18 19 20
478
FTUS43 KTOP 212342 CCA
TAFMHK
TAF COR
KMHK 212342Z 2200/2224 06006KT 6SM -RA BR SCT010 OVC040
      TEMPO 2200/2204 5SM -SHRA BR
     FM220600 02006KT P6SM VCSH OVC060
     FM221300 02006KT P6SM BKN025=

USA.gov is the U.S. government's official web portal to all federal, state and local government web resources and services.